sensor_id;sensor_type;location;lat;lon;timestamp;P1;durP1;ratioP1;P2;durP2;ratioP2
5758;SDS011;2904;48.788;9.196;2022-12-16T00:01:16;55.20;;;23.53;;
5758;SDS011;2904;48.788;9.196;2022-12-16T00:03:48;49.60;;;22.83;;
5758;SDS011;2904;48.788;9.196;2022-12-16T00:06:16;49.40;;;22.17;;
5758;SDS011;2904;48.788;9.196;2022-12-16T00:08:42;43.90;;;22.10;;
5758;SDS011;2904;48.788;9.196;2022-12-16T00:11:08;49.75;;;22.85;;
5758;SDS011;2904;48.788;9.196;2022-12-16T00:13:35;48.80;;;22.63;;
5758;SDS011;2904;48.788;9.196;2022-12-16T00:16:12;52.40;;;24.17;;
5758;SDS011;2904;48.788;9.196;2022-12-16T00:18:39;47.87;;;22.73;;
5758;SDS011;2904;48.788;9.196;2022-12-16T00:21:05;49.17;;;23.10;;
5758;SDS011;2904;48.788;9.196;2022-12-16T00:23:32;50.37;;;22.97;;
5758;SDS011;2904;48.788;9.196;2022-12-16T00:25:59;51.50;;;22.97;;
5758;SDS011;2904;48.788;9.196;2022-12-16T00:28:25;47.87;;;23.37;;
5758;SDS011;2904;48.788;9.196;2022-12-16T00:30:54;49.63;;;23.47;;
5758;SDS011;2904;48.788;9.196;2022-12-16T00:33:24;48.13;;;23.20;;
5758;SDS011;2904;48.788;9.196;2022-12-16T00:35:51;51.00;;;23.40;;
5758;SDS011;2904;48.788;9.196;2022-12-16T00:38:18;48.90;;;22.30;;
5758;SDS011;2904;48.788;9.196;2022-12-16T00:40:44;45.47;;;21.63;;
5758;SDS011;2904;48.788;9.196;2022-12-16T00:43:10;48.77;;;23.37;;
5758;SDS011;2904;48.788;9.196;2022-12-16T00:45:35;53.67;;;22.73;;
5758;SDS011;2904;48.788;9.196;2022-12-16T00:48:02;51.83;;;22.90;;
5758;SDS011;2904;48.788;9.196;2022-12-16T00:50:29;51.93;;;24.40;;
5758;SDS011;2904;48.788;9.196;2022-12-16T00:52:54;50.67;;;22.47;;
5758;SDS011;2904;48.788;9.196;2022-12-16T00:55:20;54.67;;;23.97;;
5758;SDS011;2904;48.788;9.196;2022-12-16T00:57:45;48.87;;;21.80;;
5758;SDS011;2904;48.788;9.196;2022-12-16T01:00:12;52.87;;;22.77;;
5758;SDS011;2904;48.788;9.196;2022-12-16T01:02:40;50.87;;;23.83;;
5758;SDS011;2904;48.788;9.196;2022-12-16T01:05:08;47.53;;;22.33;;
5758;SDS011;2904;48.788;9.196;2022-12-16T01:07:34;58.00;;;25.87;;
5758;SDS011;2904;48.788;9.196;2022-12-16T01:10:00;54.57;;;25.60;;
5758;SDS011;2904;48.788;9.196;2022-12-16T01:12:25;55.03;;;24.47;;
5758;SDS011;2904;48.788;9.196;2022-12-16T01:14:51;52.37;;;23.90;;
5758;SDS011;2904;48.788;9.196;2022-12-16T01:17:17;56.53;;;24.37;;
5758;SDS011;2904;48.788;9.196;2022-12-16T01:19:46;50.23;;;23.70;;
5758;SDS011;2904;48.788;9.196;2022-12-16T01:22:12;54.67;;;24.20;;
5758;SDS011;2904;48.788;9.196;2022-12-16T01:24:38;57.00;;;24.23;;
5758;SDS011;2904;48.788;9.196;2022-12-16T01:27:04;51.03;;;23.10;;
5758;SDS011;2904;48.788;9.196;2022-12-16T01:29:29;51.27;;;23.27;;
5758;SDS011;2904;48.788;9.196;2022-12-16T01:31:55;50.80;;;22.90;;
5758;SDS011;2904;48.788;9.196;2022-12-16T01:34:21;55.30;;;23.80;;
5758;SDS011;2904;48.788;9.196;2022-12-16T01:36:46;50.63;;;22.80;;
5758;SDS011;2904;48.788;9.196;2022-12-16T01:39:12;53.37;;;23.20;;
5758;SDS011;2904;48.788;9.196;2022-12-16T01:41:38;49.20;;;22.60;;
5758;SDS011;2904;48.788;9.196;2022-12-16T01:44:20;49.83;;;21.90;;
5758;SDS011;2904;48.788;9.196;2022-12-16T01:46:48;53.53;;;22.77;;
5758;SDS011;2904;48.788;9.196;2022-12-16T01:49:22;53.10;;;22.70;;
5758;SDS011;2904;48.788;9.196;2022-12-16T01:51:50;50.30;;;22.63;;
5758;SDS011;2904;48.788;9.196;2022-12-16T01:54:21;51.97;;;22.47;;
5758;SDS011;2904;48.788;9.196;2022-12-16T01:56:52;52.20;;;23.13;;
5758;SDS011;2904;48.788;9.196;2022-12-16T01:59:24;47.00;;;21.53;;
5758;SDS011;2904;48.788;9.196;2022-12-16T02:01:52;43.97;;;21.63;;
5758;SDS011;2904;48.788;9.196;2022-12-16T02:04:18;55.73;;;22.57;;
5758;SDS011;2904;48.788;9.196;2022-12-16T02:06:44;45.73;;;21.73;;
5758;SDS011;2904;48.788;9.196;2022-12-16T02:09:10;48.10;;;21.73;;
5758;SDS011;2904;48.788;9.196;2022-12-16T02:11:49;49.03;;;21.33;;
5758;SDS011;2904;48.788;9.196;2022-12-16T02:14:36;49.33;;;22.33;;
5758;SDS011;2904;48.788;9.196;2022-12-16T02:17:27;54.47;;;22.97;;
5758;SDS011;2904;48.788;9.196;2022-12-16T02:26:10;50.27;;;21.73;;
5758;SDS011;2904;48.788;9.196;2022-12-16T02:29:06;48.20;;;21.37;;
5758;SDS011;2904;48.788;9.196;2022-12-16T02:32:25;46.37;;;22.47;;
5758;SDS011;2904;48.788;9.196;2022-12-16T02:35:27;46.83;;;21.17;;
5758;SDS011;2904;48.788;9.196;2022-12-16T02:38:12;45.63;;;21.30;;
5758;SDS011;2904;48.788;9.196;2022-12-16T02:41:06;48.30;;;23.60;;
5758;SDS011;2904;48.788;9.196;2022-12-16T02:43:55;49.30;;;22.33;;
5758;SDS011;2904;48.788;9.196;2022-12-16T02:46:28;48.87;;;22.43;;
5758;SDS011;2904;48.788;9.196;2022-12-16T02:49:03;49.93;;;23.73;;
5758;SDS011;2904;48.788;9.196;2022-12-16T02:51:33;46.77;;;22.93;;
5758;SDS011;2904;48.788;9.196;2022-12-16T02:54:02;46.90;;;22.80;;
5758;SDS011;2904;48.788;9.196;2022-12-16T02:56:40;46.60;;;21.50;;
5758;SDS011;2904;48.788;9.196;2022-12-16T02:59:38;45.40;;;21.90;;
5758;SDS011;2904;48.788;9.196;2022-12-16T03:05:17;50.67;;;21.73;;
5758;SDS011;2904;48.788;9.196;2022-12-16T03:07:47;49.77;;;22.20;;
5758;SDS011;2904;48.788;9.196;2022-12-16T03:10:16;45.33;;;22.07;;
5758;SDS011;2904;48.788;9.196;2022-12-16T03:12:45;49.57;;;23.50;;
5758;SDS011;2904;48.788;9.196;2022-12-16T03:15:12;47.23;;;22.07;;
5758;SDS011;2904;48.788;9.196;2022-12-16T03:17:41;47.50;;;22.20;;
5758;SDS011;2904;48.788;9.196;2022-12-16T03:24:18;46.50;;;21.87;;
5758;SDS011;2904;48.788;9.196;2022-12-16T03:27:01;47.67;;;21.00;;
5758;SDS011;2904;48.788;9.196;2022-12-16T03:32:37;46.43;;;20.57;;
5758;SDS011;2904;48.788;9.196;2022-12-16T03:35:40;41.53;;;20.30;;
5758;SDS011;2904;48.788;9.196;2022-12-16T03:38:15;42.90;;;20.47;;
5758;SDS011;2904;48.788;9.196;2022-12-16T03:40:42;49.23;;;21.70;;
5758;SDS011;2904;48.788;9.196;2022-12-16T03:43:09;47.13;;;20.57;;
5758;SDS011;2904;48.788;9.196;2022-12-16T03:45:39;45.60;;;22.27;;
5758;SDS011;2904;48.788;9.196;2022-12-16T03:48:07;44.47;;;20.53;;
5758;SDS011;2904;48.788;9.196;2022-12-16T03:50:35;45.73;;;22.00;;
5758;SDS011;2904;48.788;9.196;2022-12-16T03:53:02;44.37;;;21.47;;
5758;SDS011;2904;48.788;9.196;2022-12-16T03:55:28;44.10;;;19.63;;
5758;SDS011;2904;48.788;9.196;2022-12-16T03:57:54;42.23;;;20.70;;
5758;SDS011;2904;48.788;9.196;2022-12-16T04:00:21;46.37;;;21.63;;
5758;SDS011;2904;48.788;9.196;2022-12-16T04:02:47;40.23;;;18.83;;
5758;SDS011;2904;48.788;9.196;2022-12-16T04:05:13;40.13;;;19.87;;
5758;SDS011;2904;48.788;9.196;2022-12-16T04:07:40;37.43;;;17.90;;
5758;SDS011;2904;48.788;9.196;2022-12-16T04:10:05;41.47;;;19.57;;
5758;SDS011;2904;48.788;9.196;2022-12-16T04:12:32;37.90;;;18.73;;
5758;SDS011;2904;48.788;9.196;2022-12-16T04:15:16;38.00;;;18.53;;
5758;SDS011;2904;48.788;9.196;2022-12-16T04:19:22;39.27;;;18.17;;
5758;SDS011;2904;48.788;9.196;2022-12-16T04:22:12;40.37;;;18.00;;
5758;SDS011;2904;48.788;9.196;2022-12-16T04:25:09;41.03;;;18.70;;
5758;SDS011;2904;48.788;9.196;2022-12-16T04:27:46;35.33;;;17.47;;
5758;SDS011;2904;48.788;9.196;2022-12-16T04:30:15;33.03;;;16.77;;
5758;SDS011;2904;48.788;9.196;2022-12-16T04:37:03;36.70;;;15.67;;
5758;SDS011;2904;48.788;9.196;2022-12-16T04:39:48;34.70;;;17.03;;
5758;SDS011;2904;48.788;9.196;2022-12-16T04:42:32;34.47;;;17.43;;
5758;SDS011;2904;48.788;9.196;2022-12-16T04:45:16;32.80;;;16.20;;
5758;SDS011;2904;48.788;9.196;2022-12-16T04:48:01;34.67;;;16.93;;
5758;SDS011;2904;48.788;9.196;2022-12-16T04:50:45;31.77;;;15.87;;
5758;SDS011;2904;48.788;9.196;2022-12-16T04:53:30;31.57;;;15.63;;
5758;SDS011;2904;48.788;9.196;2022-12-16T04:56:14;34.43;;;15.90;;
5758;SDS011;2904;48.788;9.196;2022-12-16T04:58:58;35.57;;;15.93;;
5758;SDS011;2904;48.788;9.196;2022-12-16T05:04:56;34.77;;;15.23;;
5758;SDS011;2904;48.788;9.196;2022-12-16T05:07:40;31.60;;;15.30;;
5758;SDS011;2904;48.788;9.196;2022-12-16T05:10:24;32.63;;;16.43;;
5758;SDS011;2904;48.788;9.196;2022-12-16T05:13:08;33.43;;;16.57;;
5758;SDS011;2904;48.788;9.196;2022-12-16T05:15:52;33.50;;;16.73;;
5758;SDS011;2904;48.788;9.196;2022-12-16T05:18:36;31.90;;;15.20;;
5758;SDS011;2904;48.788;9.196;2022-12-16T05:21:20;34.93;;;17.10;;
5758;SDS011;2904;48.788;9.196;2022-12-16T05:24:05;39.20;;;16.87;;
5758;SDS011;2904;48.788;9.196;2022-12-16T05:26:49;36.03;;;17.33;;
5758;SDS011;2904;48.788;9.196;2022-12-16T05:29:33;34.23;;;16.00;;
5758;SDS011;2904;48.788;9.196;2022-12-16T05:32:17;35.53;;;16.37;;
5758;SDS011;2904;48.788;9.196;2022-12-16T05:35:01;36.23;;;16.20;;
5758;SDS011;2904;48.788;9.196;2022-12-16T05:37:45;35.40;;;17.27;;
5758;SDS011;2904;48.788;9.196;2022-12-16T05:40:29;32.17;;;14.83;;
5758;SDS011;2904;48.788;9.196;2022-12-16T05:43:13;33.20;;;16.10;;
5758;SDS011;2904;48.788;9.196;2022-12-16T05:45:58;36.63;;;16.23;;
5758;SDS011;2904;48.788;9.196;2022-12-16T05:48:42;33.60;;;16.10;;
5758;SDS011;2904;48.788;9.196;2022-12-16T05:52:46;30.23;;;15.40;;
5758;SDS011;2904;48.788;9.196;2022-12-16T05:55:34;31.50;;;15.70;;
5758;SDS011;2904;48.788;9.196;2022-12-16T05:58:18;29.63;;;15.30;;
5758;SDS011;2904;48.788;9.196;2022-12-16T06:01:03;28.37;;;14.83;;
5758;SDS011;2904;48.788;9.196;2022-12-16T06:03:47;30.83;;;14.60;;
5758;SDS011;2904;48.788;9.196;2022-12-16T06:06:31;34.53;;;15.67;;
5758;SDS011;2904;48.788;9.196;2022-12-16T06:09:15;33.90;;;14.70;;
5758;SDS011;2904;48.788;9.196;2022-12-16T06:12:00;31.77;;;14.77;;
5758;SDS011;2904;48.788;9.196;2022-12-16T06:14:44;30.93;;;13.73;;
5758;SDS011;2904;48.788;9.196;2022-12-16T06:17:28;31.13;;;15.00;;
5758;SDS011;2904;48.788;9.196;2022-12-16T06:20:12;30.00;;;14.77;;
5758;SDS011;2904;48.788;9.196;2022-12-16T06:22:56;28.43;;;14.77;;
5758;SDS011;2904;48.788;9.196;2022-12-16T06:25:40;30.37;;;15.47;;
5758;SDS011;2904;48.788;9.196;2022-12-16T06:28:25;29.27;;;14.00;;
5758;SDS011;2904;48.788;9.196;2022-12-16T06:31:09;25.13;;;13.20;;
5758;SDS011;2904;48.788;9.196;2022-12-16T06:33:53;26.50;;;13.60;;
5758;SDS011;2904;48.788;9.196;2022-12-16T06:36:37;28.60;;;14.17;;
5758;SDS011;2904;48.788;9.196;2022-12-16T06:39:22;26.63;;;14.10;;
5758;SDS011;2904;48.788;9.196;2022-12-16T06:42:06;30.53;;;14.93;;
5758;SDS011;2904;48.788;9.196;2022-12-16T06:44:50;31.97;;;15.73;;
5758;SDS011;2904;48.788;9.196;2022-12-16T06:47:34;29.70;;;14.07;;
5758;SDS011;2904;48.788;9.196;2022-12-16T06:50:20;27.20;;;14.10;;
5758;SDS011;2904;48.788;9.196;2022-12-16T06:53:04;23.87;;;13.67;;
5758;SDS011;2904;48.788;9.196;2022-12-16T06:55:49;27.93;;;14.60;;
5758;SDS011;2904;48.788;9.196;2022-12-16T06:58:33;32.80;;;15.63;;
5758;SDS011;2904;48.788;9.196;2022-12-16T07:01:17;29.80;;;14.20;;
5758;SDS011;2904;48.788;9.196;2022-12-16T07:04:01;29.97;;;14.47;;
5758;SDS011;2904;48.788;9.196;2022-12-16T07:06:45;26.43;;;13.33;;
5758;SDS011;2904;48.788;9.196;2022-12-16T07:09:29;28.67;;;14.43;;
5758;SDS011;2904;48.788;9.196;2022-12-16T07:12:13;27.80;;;14.13;;
5758;SDS011;2904;48.788;9.196;2022-12-16T07:14:57;29.90;;;15.10;;
5758;SDS011;2904;48.788;9.196;2022-12-16T07:17:43;27.30;;;13.33;;
5758;SDS011;2904;48.788;9.196;2022-12-16T07:20:27;25.50;;;13.50;;
5758;SDS011;2904;48.788;9.196;2022-12-16T07:23:11;28.57;;;13.30;;
5758;SDS011;2904;48.788;9.196;2022-12-16T07:25:55;35.90;;;15.13;;
5758;SDS011;2904;48.788;9.196;2022-12-16T07:28:40;27.10;;;13.00;;
5758;SDS011;2904;48.788;9.196;2022-12-16T07:31:24;28.23;;;13.77;;
5758;SDS011;2904;48.788;9.196;2022-12-16T07:34:08;28.00;;;13.93;;
5758;SDS011;2904;48.788;9.196;2022-12-16T07:36:52;24.63;;;13.30;;
5758;SDS011;2904;48.788;9.196;2022-12-16T07:39:36;27.97;;;13.17;;
5758;SDS011;2904;48.788;9.196;2022-12-16T07:42:20;31.23;;;13.40;;
5758;SDS011;2904;48.788;9.196;2022-12-16T07:45:05;30.83;;;12.50;;
5758;SDS011;2904;48.788;9.196;2022-12-16T07:47:49;29.67;;;12.97;;
5758;SDS011;2904;48.788;9.196;2022-12-16T07:50:35;28.70;;;12.37;;
5758;SDS011;2904;48.788;9.196;2022-12-16T07:53:19;27.13;;;12.23;;
5758;SDS011;2904;48.788;9.196;2022-12-16T07:56:04;27.03;;;12.47;;
5758;SDS011;2904;48.788;9.196;2022-12-16T07:58:49;22.50;;;12.93;;
5758;SDS011;2904;48.788;9.196;2022-12-16T08:01:33;24.77;;;12.03;;
5758;SDS011;2904;48.788;9.196;2022-12-16T08:04:17;25.23;;;11.57;;
5758;SDS011;2904;48.788;9.196;2022-12-16T08:07:01;21.27;;;10.33;;
5758;SDS011;2904;48.788;9.196;2022-12-16T08:09:46;25.13;;;11.57;;
5758;SDS011;2904;48.788;9.196;2022-12-16T08:12:30;22.90;;;12.60;;
5758;SDS011;2904;48.788;9.196;2022-12-16T08:15:14;24.67;;;11.73;;
5758;SDS011;2904;48.788;9.196;2022-12-16T08:17:58;26.03;;;11.53;;
5758;SDS011;2904;48.788;9.196;2022-12-16T08:20:42;23.77;;;11.13;;
5758;SDS011;2904;48.788;9.196;2022-12-16T08:23:26;35.63;;;17.07;;
5758;SDS011;2904;48.788;9.196;2022-12-16T08:26:10;28.80;;;12.37;;
5758;SDS011;2904;48.788;9.196;2022-12-16T08:28:54;22.90;;;11.63;;
5758;SDS011;2904;48.788;9.196;2022-12-16T08:31:39;21.70;;;11.03;;
5758;SDS011;2904;48.788;9.196;2022-12-16T08:34:23;24.10;;;11.57;;
5758;SDS011;2904;48.788;9.196;2022-12-16T08:37:07;22.30;;;11.40;;
5758;SDS011;2904;48.788;9.196;2022-12-16T08:39:51;21.40;;;10.83;;
5758;SDS011;2904;48.788;9.196;2022-12-16T08:42:35;23.73;;;10.90;;
5758;SDS011;2904;48.788;9.196;2022-12-16T08:45:19;19.97;;;10.13;;
5758;SDS011;2904;48.788;9.196;2022-12-16T08:48:04;22.30;;;11.00;;
5758;SDS011;2904;48.788;9.196;2022-12-16T08:50:48;23.73;;;11.70;;
5758;SDS011;2904;48.788;9.196;2022-12-16T08:53:32;23.33;;;11.00;;
5758;SDS011;2904;48.788;9.196;2022-12-16T08:56:16;22.33;;;10.27;;
5758;SDS011;2904;48.788;9.196;2022-12-16T08:59:00;22.20;;;11.03;;
5758;SDS011;2904;48.788;9.196;2022-12-16T09:01:44;21.33;;;10.93;;
5758;SDS011;2904;48.788;9.196;2022-12-16T09:04:28;22.80;;;11.87;;
5758;SDS011;2904;48.788;9.196;2022-12-16T09:07:13;30.83;;;16.23;;
5758;SDS011;2904;48.788;9.196;2022-12-16T09:09:57;21.83;;;11.20;;
5758;SDS011;2904;48.788;9.196;2022-12-16T09:12:41;19.57;;;10.77;;
5758;SDS011;2904;48.788;9.196;2022-12-16T09:15:25;23.03;;;11.33;;
5758;SDS011;2904;48.788;9.196;2022-12-16T09:18:09;19.47;;;10.20;;
5758;SDS011;2904;48.788;9.196;2022-12-16T09:20:53;19.37;;;10.47;;
5758;SDS011;2904;48.788;9.196;2022-12-16T09:23:37;22.40;;;10.50;;
5758;SDS011;2904;48.788;9.196;2022-12-16T09:26:21;19.17;;;9.77;;
5758;SDS011;2904;48.788;9.196;2022-12-16T09:29:05;24.00;;;11.17;;
5758;SDS011;2904;48.788;9.196;2022-12-16T09:31:49;19.67;;;9.37;;
5758;SDS011;2904;48.788;9.196;2022-12-16T09:34:33;18.23;;;9.57;;
5758;SDS011;2904;48.788;9.196;2022-12-16T09:37:17;19.53;;;10.10;;
5758;SDS011;2904;48.788;9.196;2022-12-16T09:40:02;21.17;;;9.93;;
5758;SDS011;2904;48.788;9.196;2022-12-16T09:43:33;17.20;;;9.27;;
5758;SDS011;2904;48.788;9.196;2022-12-16T09:46:41;18.27;;;9.20;;
5758;SDS011;2904;48.788;9.196;2022-12-16T09:49:47;15.80;;;7.97;;
5758;SDS011;2904;48.788;9.196;2022-12-16T09:52:38;19.27;;;9.00;;
5758;SDS011;2904;48.788;9.196;2022-12-16T09:55:28;19.10;;;9.57;;
5758;SDS011;2904;48.788;9.196;2022-12-16T09:58:16;20.73;;;9.77;;
5758;SDS011;2904;48.788;9.196;2022-12-16T10:01:05;17.10;;;9.40;;
5758;SDS011;2904;48.788;9.196;2022-12-16T10:03:54;18.57;;;9.27;;
5758;SDS011;2904;48.788;9.196;2022-12-16T10:09:59;17.07;;;8.33;;
5758;SDS011;2904;48.788;9.196;2022-12-16T10:13:28;17.27;;;9.95;;
5758;SDS011;2904;48.788;9.196;2022-12-16T10:16:34;15.67;;;8.77;;
5758;SDS011;2904;48.788;9.196;2022-12-16T10:29:27;16.47;;;7.60;;
5758;SDS011;2904;48.788;9.196;2022-12-16T10:32:26;14.77;;;8.07;;
5758;SDS011;2904;48.788;9.196;2022-12-16T10:35:22;17.50;;;8.80;;
5758;SDS011;2904;48.788;9.196;2022-12-16T10:38:36;17.63;;;8.50;;
5758;SDS011;2904;48.788;9.196;2022-12-16T10:41:25;19.67;;;9.47;;
5758;SDS011;2904;48.788;9.196;2022-12-16T10:49:37;18.17;;;8.57;;
5758;SDS011;2904;48.788;9.196;2022-12-16T10:52:21;14.50;;;8.27;;
5758;SDS011;2904;48.788;9.196;2022-12-16T10:59:22;16.53;;;8.50;;
5758;SDS011;2904;48.788;9.196;2022-12-16T11:02:18;17.03;;;8.50;;
5758;SDS011;2904;48.788;9.196;2022-12-16T11:05:22;17.03;;;8.13;;
5758;SDS011;2904;48.788;9.196;2022-12-16T11:08:23;17.77;;;8.60;;
5758;SDS011;2904;48.788;9.196;2022-12-16T11:11:20;20.57;;;9.30;;
5758;SDS011;2904;48.788;9.196;2022-12-16T11:14:26;16.23;;;8.50;;
5758;SDS011;2904;48.788;9.196;2022-12-16T11:17:22;15.83;;;8.37;;
5758;SDS011;2904;48.788;9.196;2022-12-16T11:20:18;16.60;;;8.40;;
5758;SDS011;2904;48.788;9.196;2022-12-16T11:23:08;16.90;;;8.80;;
5758;SDS011;2904;48.788;9.196;2022-12-16T11:26:08;18.57;;;8.57;;
5758;SDS011;2904;48.788;9.196;2022-12-16T11:29:14;15.27;;;7.93;;
5758;SDS011;2904;48.788;9.196;2022-12-16T11:32:00;17.53;;;8.37;;
5758;SDS011;2904;48.788;9.196;2022-12-16T11:34:57;17.87;;;8.60;;
5758;SDS011;2904;48.788;9.196;2022-12-16T11:37:42;17.60;;;8.80;;
5758;SDS011;2904;48.788;9.196;2022-12-16T11:40:29;15.77;;;9.13;;
5758;SDS011;2904;48.788;9.196;2022-12-16T11:44:43;18.90;;;8.33;;
5758;SDS011;2904;48.788;9.196;2022-12-16T11:47:44;19.17;;;9.30;;
5758;SDS011;2904;48.788;9.196;2022-12-16T11:50:34;17.20;;;8.93;;
5758;SDS011;2904;48.788;9.196;2022-12-16T11:53:58;16.93;;;8.80;;
5758;SDS011;2904;48.788;9.196;2022-12-16T11:57:06;19.40;;;9.40;;
5758;SDS011;2904;48.788;9.196;2022-12-16T12:00:11;18.07;;;8.53;;
5758;SDS011;2904;48.788;9.196;2022-12-16T12:05:17;14.37;;;7.97;;
5758;SDS011;2904;48.788;9.196;2022-12-16T12:08:11;12.87;;;7.33;;
5758;SDS011;2904;48.788;9.196;2022-12-16T12:11:13;15.90;;;7.43;;
5758;SDS011;2904;48.788;9.196;2022-12-16T12:19:00;14.07;;;7.53;;
5758;SDS011;2904;48.788;9.196;2022-12-16T12:21:56;15.93;;;8.13;;
5758;SDS011;2904;48.788;9.196;2022-12-16T12:24:52;18.60;;;8.47;;
5758;SDS011;2904;48.788;9.196;2022-12-16T12:28:01;17.70;;;8.30;;
5758;SDS011;2904;48.788;9.196;2022-12-16T12:33:31;16.87;;;8.43;;
5758;SDS011;2904;48.788;9.196;2022-12-16T12:38:53;11.97;;;6.57;;
5758;SDS011;2904;48.788;9.196;2022-12-16T12:48:21;17.23;;;8.57;;
5758;SDS011;2904;48.788;9.196;2022-12-16T12:51:30;17.43;;;8.10;;
5758;SDS011;2904;48.788;9.196;2022-12-16T12:54:52;17.50;;;8.77;;
5758;SDS011;2904;48.788;9.196;2022-12-16T12:58:06;17.33;;;8.67;;
5758;SDS011;2904;48.788;9.196;2022-12-16T13:00:52;16.43;;;8.73;;
5758;SDS011;2904;48.788;9.196;2022-12-16T13:06:45;14.40;;;7.50;;
5758;SDS011;2904;48.788;9.196;2022-12-16T13:09:33;13.57;;;6.93;;
5758;SDS011;2904;48.788;9.196;2022-12-16T13:12:26;15.30;;;7.37;;
5758;SDS011;2904;48.788;9.196;2022-12-16T13:18:29;12.93;;;6.97;;
5758;SDS011;2904;48.788;9.196;2022-12-16T13:24:39;12.13;;;6.90;;
5758;SDS011;2904;48.788;9.196;2022-12-16T13:27:27;15.10;;;8.10;;
5758;SDS011;2904;48.788;9.196;2022-12-16T13:33:29;13.83;;;7.47;;
5758;SDS011;2904;48.788;9.196;2022-12-16T13:36:14;15.07;;;8.27;;
5758;SDS011;2904;48.788;9.196;2022-12-16T13:39:04;14.73;;;7.90;;
5758;SDS011;2904;48.788;9.196;2022-12-16T13:42:32;15.70;;;7.83;;
5758;SDS011;2904;48.788;9.196;2022-12-16T13:49:40;17.67;;;8.57;;
5758;SDS011;2904;48.788;9.196;2022-12-16T13:52:34;14.53;;;7.33;;
5758;SDS011;2904;48.788;9.196;2022-12-16T13:57:57;17.50;;;8.90;;
5758;SDS011;2904;48.788;9.196;2022-12-16T14:00:53;15.80;;;8.40;;
5758;SDS011;2904;48.788;9.196;2022-12-16T14:03:41;13.23;;;7.00;;
5758;SDS011;2904;48.788;9.196;2022-12-16T14:06:31;17.98;;;10.18;;
5758;SDS011;2904;48.788;9.196;2022-12-16T14:12:39;15.30;;;8.77;;
5758;SDS011;2904;48.788;9.196;2022-12-16T14:15:50;18.83;;;7.70;;
5758;SDS011;2904;48.788;9.196;2022-12-16T14:20:14;14.17;;;7.50;;
5758;SDS011;2904;48.788;9.196;2022-12-16T14:26:16;14.67;;;7.77;;
5758;SDS011;2904;48.788;9.196;2022-12-16T14:29:01;13.10;;;7.80;;
5758;SDS011;2904;48.788;9.196;2022-12-16T14:31:46;16.20;;;7.80;;
5758;SDS011;2904;48.788;9.196;2022-12-16T14:34:33;14.27;;;7.67;;
5758;SDS011;2904;48.788;9.196;2022-12-16T14:37:22;14.23;;;7.43;;
5758;SDS011;2904;48.788;9.196;2022-12-16T14:40:19;17.33;;;8.17;;
5758;SDS011;2904;48.788;9.196;2022-12-16T14:43:15;13.53;;;7.70;;
5758;SDS011;2904;48.788;9.196;2022-12-16T14:46:15;15.50;;;8.73;;
5758;SDS011;2904;48.788;9.196;2022-12-16T14:49:19;15.70;;;8.07;;
5758;SDS011;2904;48.788;9.196;2022-12-16T14:52:15;17.83;;;8.40;;
5758;SDS011;2904;48.788;9.196;2022-12-16T14:55:14;15.17;;;8.20;;
5758;SDS011;2904;48.788;9.196;2022-12-16T14:58:13;49.27;;;20.13;;
5758;SDS011;2904;48.788;9.196;2022-12-16T15:01:01;28.57;;;12.67;;
5758;SDS011;2904;48.788;9.196;2022-12-16T15:03:56;16.40;;;8.37;;
5758;SDS011;2904;48.788;9.196;2022-12-16T15:06:42;14.67;;;7.80;;
5758;SDS011;2904;48.788;9.196;2022-12-16T15:12:37;15.43;;;7.90;;
5758;SDS011;2904;48.788;9.196;2022-12-16T15:15:37;14.50;;;7.23;;
5758;SDS011;2904;48.788;9.196;2022-12-16T15:18:30;19.90;;;10.03;;
5758;SDS011;2904;48.788;9.196;2022-12-16T15:21:24;13.53;;;7.70;;
5758;SDS011;2904;48.788;9.196;2022-12-16T15:24:19;15.87;;;8.20;;
5758;SDS011;2904;48.788;9.196;2022-12-16T15:27:25;12.87;;;7.40;;
5758;SDS011;2904;48.788;9.196;2022-12-16T15:30:36;13.07;;;7.20;;
5758;SDS011;2904;48.788;9.196;2022-12-16T15:33:27;13.30;;;7.97;;
5758;SDS011;2904;48.788;9.196;2022-12-16T15:36:26;23.30;;;10.80;;
5758;SDS011;2904;48.788;9.196;2022-12-16T15:39:19;17.23;;;8.97;;
5758;SDS011;2904;48.788;9.196;2022-12-16T15:42:16;14.87;;;7.40;;
5758;SDS011;2904;48.788;9.196;2022-12-16T15:45:02;18.57;;;8.33;;
5758;SDS011;2904;48.788;9.196;2022-12-16T15:47:48;14.30;;;8.33;;
5758;SDS011;2904;48.788;9.196;2022-12-16T15:50:33;15.13;;;7.70;;
5758;SDS011;2904;48.788;9.196;2022-12-16T15:53:29;18.80;;;8.33;;
5758;SDS011;2904;48.788;9.196;2022-12-16T15:56:25;17.70;;;7.97;;
5758;SDS011;2904;48.788;9.196;2022-12-16T15:59:21;20.17;;;7.80;;
5758;SDS011;2904;48.788;9.196;2022-12-16T16:02:14;15.27;;;8.57;;
5758;SDS011;2904;48.788;9.196;2022-12-16T16:05:11;17.97;;;8.73;;
5758;SDS011;2904;48.788;9.196;2022-12-16T16:08:03;17.77;;;8.30;;
5758;SDS011;2904;48.788;9.196;2022-12-16T16:10:48;16.87;;;8.80;;
5758;SDS011;2904;48.788;9.196;2022-12-16T16:13:32;16.40;;;8.23;;
5758;SDS011;2904;48.788;9.196;2022-12-16T16:16:16;14.80;;;7.87;;
5758;SDS011;2904;48.788;9.196;2022-12-16T16:19:00;15.77;;;8.33;;
5758;SDS011;2904;48.788;9.196;2022-12-16T16:21:45;16.10;;;8.23;;
5758;SDS011;2904;48.788;9.196;2022-12-16T16:24:29;18.37;;;8.93;;
5758;SDS011;2904;48.788;9.196;2022-12-16T16:27:13;19.33;;;8.67;;
5758;SDS011;2904;48.788;9.196;2022-12-16T16:29:59;18.93;;;8.93;;
5758;SDS011;2904;48.788;9.196;2022-12-16T16:32:43;17.17;;;8.63;;
5758;SDS011;2904;48.788;9.196;2022-12-16T16:35:29;18.77;;;8.83;;
5758;SDS011;2904;48.788;9.196;2022-12-16T16:38:14;22.70;;;9.37;;
5758;SDS011;2904;48.788;9.196;2022-12-16T16:40:59;22.27;;;9.27;;
5758;SDS011;2904;48.788;9.196;2022-12-16T16:43:43;18.17;;;9.33;;
5758;SDS011;2904;48.788;9.196;2022-12-16T16:46:32;17.77;;;9.27;;
5758;SDS011;2904;48.788;9.196;2022-12-16T16:49:22;18.20;;;9.40;;
5758;SDS011;2904;48.788;9.196;2022-12-16T16:52:11;19.20;;;9.77;;
5758;SDS011;2904;48.788;9.196;2022-12-16T16:54:57;21.00;;;9.83;;
5758;SDS011;2904;48.788;9.196;2022-12-16T16:57:41;25.53;;;11.60;;
5758;SDS011;2904;48.788;9.196;2022-12-16T17:00:26;23.47;;;11.77;;
5758;SDS011;2904;48.788;9.196;2022-12-16T17:03:11;20.97;;;9.70;;
5758;SDS011;2904;48.788;9.196;2022-12-16T17:05:55;18.13;;;9.37;;
5758;SDS011;2904;48.788;9.196;2022-12-16T17:08:39;18.93;;;10.07;;
5758;SDS011;2904;48.788;9.196;2022-12-16T17:11:23;22.63;;;10.60;;
5758;SDS011;2904;48.788;9.196;2022-12-16T17:14:16;21.97;;;10.17;;
5758;SDS011;2904;48.788;9.196;2022-12-16T17:18:05;21.73;;;10.30;;
5758;SDS011;2904;48.788;9.196;2022-12-16T17:20:50;21.33;;;10.47;;
5758;SDS011;2904;48.788;9.196;2022-12-16T17:23:35;19.53;;;10.63;;
5758;SDS011;2904;48.788;9.196;2022-12-16T17:26:20;23.03;;;11.03;;
5758;SDS011;2904;48.788;9.196;2022-12-16T17:29:04;23.13;;;10.63;;
5758;SDS011;2904;48.788;9.196;2022-12-16T17:31:48;22.03;;;10.73;;
5758;SDS011;2904;48.788;9.196;2022-12-16T17:34:32;21.23;;;11.07;;
5758;SDS011;2904;48.788;9.196;2022-12-16T17:37:17;23.67;;;11.30;;
5758;SDS011;2904;48.788;9.196;2022-12-16T17:40:01;19.93;;;10.47;;
5758;SDS011;2904;48.788;9.196;2022-12-16T17:42:45;22.87;;;11.73;;
5758;SDS011;2904;48.788;9.196;2022-12-16T17:49:33;21.27;;;10.57;;
5758;SDS011;2904;48.788;9.196;2022-12-16T17:52:17;22.13;;;11.37;;
5758;SDS011;2904;48.788;9.196;2022-12-16T17:55:01;21.47;;;10.53;;
5758;SDS011;2904;48.788;9.196;2022-12-16T17:57:46;22.57;;;11.07;;
5758;SDS011;2904;48.788;9.196;2022-12-16T18:00:30;19.63;;;10.80;;
5758;SDS011;2904;48.788;9.196;2022-12-16T18:03:14;18.40;;;10.00;;
5758;SDS011;2904;48.788;9.196;2022-12-16T18:05:58;21.47;;;11.43;;
5758;SDS011;2904;48.788;9.196;2022-12-16T18:08:42;23.53;;;11.47;;
5758;SDS011;2904;48.788;9.196;2022-12-16T18:11:26;21.30;;;11.10;;
5758;SDS011;2904;48.788;9.196;2022-12-16T18:14:10;22.90;;;11.07;;
5758;SDS011;2904;48.788;9.196;2022-12-16T18:19:13;23.47;;;10.83;;
5758;SDS011;2904;48.788;9.196;2022-12-16T18:21:59;20.47;;;10.70;;
5758;SDS011;2904;48.788;9.196;2022-12-16T18:24:43;23.20;;;11.57;;